createdAt,value
2022-09-29T00:01:23.337Z,3.05
2022-09-29T00:03:26.551Z,3.05
2022-09-29T00:05:29.270Z,2.50
2022-09-29T00:07:32.504Z,2.72
2022-09-29T00:09:35.149Z,2.72
2022-09-29T00:11:37.844Z,2.97
2022-09-29T00:13:40.520Z,2.67
2022-09-29T00:15:45.014Z,2.50
2022-09-29T00:18:12.157Z,2.47
2022-09-29T00:20:10.606Z,2.92
2022-09-29T00:22:13.233Z,2.80
2022-09-29T00:24:16.510Z,2.47
2022-09-29T00:26:21.262Z,2.90
2022-09-29T00:28:23.989Z,2.90
2022-09-29T00:30:26.854Z,2.53
2022-09-29T00:32:30.814Z,3.08
2022-09-29T00:34:33.584Z,2.75
2022-09-29T00:36:36.210Z,2.30
2022-09-29T00:38:39.902Z,2.53
2022-09-29T00:40:42.609Z,2.33
2022-09-29T00:42:45.486Z,2.58
2022-09-29T00:45:01.283Z,2.72
2022-09-29T00:47:06.831Z,2.60
2022-09-29T00:49:17.565Z,2.58
2022-09-29T00:51:21.459Z,2.75
2022-09-29T00:53:26.583Z,2.58
2022-09-29T00:55:36.753Z,2.47
2022-09-29T00:57:46.575Z,2.42
2022-09-29T00:59:55.550Z,3.05
2022-09-29T01:02:00.000Z,2.70
2022-09-29T01:04:05.977Z,2.42
2022-09-29T01:06:15.312Z,2.55
2022-09-29T01:08:25.624Z,2.50
2022-09-29T01:10:28.786Z,3.13
2022-09-29T01:12:31.645Z,2.60
2022-09-29T01:14:36.177Z,2.85
2022-09-29T01:16:42.145Z,2.85
2022-09-29T01:18:47.681Z,2.60
2022-09-29T01:20:58.020Z,2.70
2022-09-29T01:23:33.040Z,3.05
2022-09-29T01:26:04.097Z,2.88
2022-09-29T01:28:40.868Z,3.47
2022-09-29T01:31:03.384Z,3.00
2022-09-29T01:33:18.246Z,3.10
2022-09-29T01:35:27.571Z,2.83
2022-09-29T01:37:41.193Z,3.15
2022-09-29T01:39:52.778Z,2.80
2022-09-29T01:42:01.794Z,3.50
2022-09-29T01:44:10.236Z,3.35
2022-09-29T01:46:21.457Z,3.40
2022-09-29T01:48:29.765Z,3.20
2022-09-29T01:50:37.846Z,3.50
2022-09-29T01:52:45.488Z,3.67
2022-09-29T01:54:52.047Z,3.17
2022-09-29T01:57:00.554Z,3.00
2022-09-29T01:59:09.748Z,2.70
2022-09-29T02:01:17.553Z,3.60
2022-09-29T02:03:25.508Z,3.30
2022-09-29T02:05:33.522Z,2.63
2022-09-29T02:07:42.137Z,3.20
2022-09-29T02:09:50.283Z,2.55
2022-09-29T02:11:54.951Z,2.53
2022-09-29T02:14:03.045Z,2.58
2022-09-29T02:16:10.557Z,2.88
2022-09-29T02:18:20.400Z,2.80
2022-09-29T02:20:23.173Z,2.45
2022-09-29T02:22:26.277Z,2.97
2022-09-29T02:24:29.068Z,2.95
2022-09-29T02:26:34.709Z,2.50
2022-09-29T02:28:37.942Z,2.75
2022-09-29T02:30:41.149Z,2.55
2022-09-29T02:32:43.869Z,2.70
2022-09-29T02:34:51.125Z,2.70
2022-09-29T02:37:01.091Z,2.90
2022-09-29T02:39:10.843Z,2.65
2022-09-29T02:41:27.260Z,2.50
2022-09-29T02:43:46.578Z,2.72
2022-09-29T02:46:02.015Z,2.80
2022-09-29T02:48:24.181Z,3.10
2022-09-29T02:50:52.294Z,3.08
2022-09-29T02:53:01.509Z,2.85
2022-09-29T02:55:11.178Z,2.65
2022-09-29T02:57:20.893Z,2.53
2022-09-29T02:59:29.090Z,2.60
2022-09-29T03:01:32.462Z,2.38
2022-09-29T03:03:35.455Z,2.40
2022-09-29T03:05:40.000Z,2.25
2022-09-29T03:07:43.312Z,2.90
2022-09-29T03:09:46.132Z,3.40
2022-09-29T03:11:48.815Z,3.75
2022-09-29T03:13:51.494Z,3.63
2022-09-29T03:15:55.537Z,3.65
2022-09-29T03:17:58.378Z,3.70
2022-09-29T03:20:01.188Z,3.60
2022-09-29T03:22:05.165Z,3.80
2022-09-29T03:24:07.973Z,3.65
2022-09-29T03:26:10.735Z,3.90
2022-09-29T03:28:13.486Z,3.53
2022-09-29T03:30:16.161Z,3.42
2022-09-29T03:32:19.248Z,3.53
2022-09-29T03:34:21.912Z,3.90
2022-09-29T03:36:24.517Z,3.15
2022-09-29T03:38:28.558Z,3.22
2022-09-29T03:40:31.286Z,3.15
2022-09-29T03:42:33.962Z,3.15
2022-09-29T03:44:36.710Z,3.55
2022-09-29T03:46:39.511Z,3.35
2022-09-29T03:48:42.959Z,3.70
2022-09-29T03:50:46.329Z,3.63
2022-09-29T03:52:48.948Z,3.00
2022-09-29T03:54:52.876Z,3.03
2022-09-29T03:56:55.547Z,3.25
2022-09-29T03:58:58.211Z,3.38
2022-09-29T04:01:01.279Z,3.30
2022-09-29T04:03:03.993Z,3.30
2022-09-29T04:05:07.439Z,3.25
2022-09-29T04:07:10.081Z,3.00
2022-09-29T04:09:12.706Z,3.10
2022-09-29T04:11:16.756Z,2.90
2022-09-29T04:13:20.321Z,2.83
2022-09-29T04:15:22.964Z,3.17
2022-09-29T04:17:25.996Z,3.38
2022-09-29T04:19:28.611Z,2.42
2022-09-29T04:21:31.199Z,2.65
2022-09-29T04:23:33.843Z,3.00
2022-09-29T04:25:36.437Z,2.97
2022-09-29T04:27:40.358Z,3.10
2022-09-29T04:29:43.055Z,3.28
2022-09-29T04:31:45.741Z,2.80
2022-09-29T04:33:48.382Z,3.13
2022-09-29T04:35:51.260Z,3.38
2022-09-29T04:37:57.133Z,2.80
2022-09-29T04:39:59.776Z,3.55
2022-09-29T04:42:02.378Z,3.60
2022-09-29T04:44:06.976Z,3.47
2022-09-29T04:46:10.076Z,4.47
2022-09-29T04:48:12.786Z,3.75
2022-09-29T04:50:15.420Z,4.00
2022-09-29T04:52:18.033Z,3.92
2022-09-29T04:54:20.612Z,4.50
2022-09-29T04:56:23.256Z,4.72
2022-09-29T04:58:25.907Z,5.68
2022-09-29T05:00:31.940Z,5.78
2022-09-29T05:02:35.006Z,5.65
2022-09-29T05:04:37.675Z,5.47
2022-09-29T05:06:40.388Z,6.00
2022-09-29T05:08:42.980Z,6.05
2022-09-29T05:10:47.832Z,5.43
2022-09-29T05:12:50.906Z,6.38
2022-09-29T05:14:53.546Z,7.28
2022-09-29T05:16:58.749Z,6.85
2022-09-29T05:19:01.390Z,7.07
2022-09-29T05:21:26.418Z,6.82
2022-09-29T05:23:29.242Z,6.75
2022-09-29T05:25:32.685Z,7.35
2022-09-29T05:27:35.514Z,7.13
2022-09-29T05:29:38.097Z,6.93
2022-09-29T05:31:40.779Z,6.90
2022-09-29T05:33:44.911Z,6.60
2022-09-29T05:35:47.503Z,7.35
2022-09-29T05:37:51.605Z,6.38
2022-09-29T05:39:54.206Z,5.53
2022-09-29T05:41:59.584Z,5.97
2022-09-29T05:44:02.807Z,6.05
2022-09-29T05:46:07.069Z,6.20
2022-09-29T05:48:10.314Z,5.80
2022-09-29T05:50:14.352Z,6.10
2022-09-29T05:52:16.978Z,4.88
2022-09-29T05:54:19.638Z,5.35
2022-09-29T05:56:24.612Z,5.75
2022-09-29T05:58:27.225Z,6.18
2022-09-29T06:00:31.475Z,6.18
2022-09-29T06:02:34.414Z,5.75
2022-09-29T06:07:43.327Z,5.85
2022-09-29T06:09:47.699Z,5.22
2022-09-29T06:11:50.540Z,4.43
2022-09-29T06:13:54.594Z,4.80
2022-09-29T06:15:59.522Z,4.47
2022-09-29T06:18:02.287Z,5.38
2022-09-29T06:20:06.950Z,5.38
2022-09-29T06:22:09.676Z,7.60
2022-09-29T06:24:12.869Z,6.90
2022-09-29T06:26:23.604Z,6.95
2022-09-29T06:28:27.021Z,8.18
2022-09-29T06:30:29.644Z,7.60
2022-09-29T06:32:33.976Z,7.30
2022-09-29T06:34:59.426Z,6.90
2022-09-29T06:37:19.732Z,6.22
2022-09-29T06:39:22.518Z,5.60
2022-09-29T06:41:27.518Z,5.45
2022-09-29T06:43:30.373Z,5.80
2022-09-29T06:45:33.046Z,5.22
2022-09-29T06:47:35.688Z,4.93
2022-09-29T06:49:38.589Z,4.50
2022-09-29T06:51:46.086Z,4.30
2022-09-29T06:53:49.961Z,4.70
2022-09-29T06:55:56.859Z,4.70
2022-09-29T07:00:08.828Z,4.97
2022-09-29T07:02:12.075Z,4.28
2022-09-29T07:04:14.736Z,4.45
2022-09-29T07:06:20.789Z,4.20
2022-09-29T07:08:23.632Z,4.05
2022-09-29T07:10:26.279Z,4.25
2022-09-29T07:12:28.963Z,4.38
2022-09-29T07:14:32.964Z,3.85
2022-09-29T07:16:35.759Z,4.05
2022-09-29T07:18:40.799Z,4.15
2022-09-29T07:20:44.426Z,3.50
2022-09-29T07:22:47.977Z,3.72
2022-09-29T07:24:50.979Z,4.40
2022-09-29T07:26:53.707Z,4.28
2022-09-29T07:28:56.497Z,4.57
2022-09-29T07:31:12.544Z,4.07
2022-09-29T07:33:19.456Z,4.05
2022-09-29T07:35:23.884Z,4.57
2022-09-29T07:37:26.526Z,3.83
2022-09-29T07:39:29.190Z,4.47
2022-09-29T07:41:31.839Z,4.22
2022-09-29T07:43:34.926Z,4.18
2022-09-29T07:45:37.599Z,4.45
2022-09-29T07:47:41.623Z,4.82
2022-09-29T07:49:45.094Z,4.32
2022-09-29T07:51:47.956Z,3.80
2022-09-29T07:53:50.573Z,4.40
2022-09-29T07:55:53.149Z,4.20
2022-09-29T07:57:56.834Z,4.40
2022-09-29T07:59:59.516Z,4.13
2022-09-29T08:02:02.871Z,3.53
2022-09-29T08:04:06.919Z,3.10
2022-09-29T08:06:10.893Z,3.13
2022-09-29T08:08:13.538Z,3.10
2022-09-29T08:10:17.827Z,2.90
2022-09-29T08:12:20.673Z,3.22
2022-09-29T08:14:23.440Z,2.75
2022-09-29T08:16:26.396Z,3.05
2022-09-29T08:18:29.883Z,3.13
2022-09-29T08:20:36.201Z,3.10
2022-09-29T08:22:38.848Z,3.10
2022-09-29T08:24:42.300Z,2.30
2022-09-29T08:26:45.290Z,2.80
2022-09-29T08:28:52.741Z,3.05
2022-09-29T08:31:04.897Z,2.67
2022-09-29T08:33:12.363Z,2.70
2022-09-29T08:35:15.272Z,1.75
2022-09-29T08:37:19.221Z,2.20
2022-09-29T08:39:21.822Z,1.80
2022-09-29T08:41:35.631Z,2.10
2022-09-29T08:43:41.619Z,2.00
2022-09-29T08:45:59.844Z,2.70
2022-09-29T08:48:20.511Z,2.20
2022-09-29T08:50:31.178Z,1.95
2022-09-29T08:52:49.553Z,1.75
2022-09-29T08:55:03.235Z,2.70
2022-09-29T08:57:15.352Z,1.98
2022-09-29T08:59:18.171Z,2.22
2022-09-29T09:01:30.474Z,1.80
2022-09-29T09:03:59.089Z,1.58
2022-09-29T09:06:14.626Z,1.50
2022-09-29T09:08:36.686Z,1.50
2022-09-29T09:10:47.285Z,1.48
2022-09-29T09:13:08.661Z,1.35
2022-09-29T09:15:37.913Z,1.45
2022-09-29T09:17:56.949Z,1.50
2022-09-29T09:20:13.018Z,1.50
2022-09-29T09:22:23.166Z,1.52
2022-09-29T09:24:34.106Z,1.95
2022-09-29T09:26:41.249Z,1.58
2022-09-29T09:28:47.042Z,2.10
2022-09-29T09:30:56.458Z,1.80
2022-09-29T09:33:05.577Z,1.80
2022-09-29T09:35:24.657Z,2.67
2022-09-29T09:37:33.476Z,1.90
2022-09-29T09:39:43.702Z,2.08
2022-09-29T09:41:51.723Z,1.77
2022-09-29T09:43:58.847Z,1.63
2022-09-29T09:46:09.182Z,1.70
2022-09-29T09:48:18.296Z,1.70
2022-09-29T09:50:27.148Z,1.80
2022-09-29T09:52:44.522Z,2.00
2022-09-29T09:54:52.953Z,2.08
2022-09-29T09:57:11.749Z,2.78
2022-09-29T09:59:28.410Z,1.80
2022-09-29T10:01:31.202Z,1.90
2022-09-29T10:03:34.301Z,1.80
2022-09-29T10:05:40.061Z,1.90
2022-09-29T10:07:43.110Z,1.40
2022-09-29T10:09:45.947Z,2.40
2022-09-29T10:11:50.103Z,2.28
2022-09-29T10:13:59.679Z,2.13
2022-09-29T10:16:10.761Z,1.48
2022-09-29T10:18:17.606Z,2.00
2022-09-29T10:20:34.413Z,1.80
2022-09-29T10:22:37.227Z,1.70
2022-09-29T10:24:39.818Z,1.80
2022-09-29T10:26:45.554Z,1.55
2022-09-29T10:28:54.254Z,2.10
2022-09-29T10:30:57.012Z,1.80
2022-09-29T10:33:02.073Z,1.90
2022-09-29T10:35:11.464Z,2.00
2022-09-29T10:37:24.034Z,2.22
2022-09-29T10:41:52.182Z,1.80
2022-09-29T10:43:56.132Z,1.77
2022-09-29T10:45:59.661Z,1.88
2022-09-29T10:48:12.970Z,2.10
2022-09-29T10:50:19.115Z,1.80
2022-09-29T10:52:26.668Z,1.77
2022-09-29T10:54:31.428Z,1.60
2022-09-29T10:56:34.177Z,1.65
2022-09-29T10:58:52.716Z,1.60
2022-09-29T11:01:09.200Z,1.45
2022-09-29T11:03:20.701Z,1.77
2022-09-29T11:05:24.692Z,1.75
2022-09-29T11:07:28.322Z,1.90
2022-09-29T11:09:36.288Z,1.75
2022-09-29T11:11:40.296Z,1.58
2022-09-29T11:13:43.276Z,1.92
2022-09-29T11:15:46.241Z,1.80
2022-09-29T11:17:52.614Z,2.10
2022-09-29T11:19:58.850Z,1.90
2022-09-29T11:22:30.335Z,1.90
2022-09-29T11:24:50.534Z,2.13
2022-09-29T11:27:00.845Z,1.80
2022-09-29T11:29:22.765Z,2.00
2022-09-29T11:31:40.352Z,2.05
2022-09-29T11:33:55.529Z,1.70
2022-09-29T11:36:05.179Z,2.05
2022-09-29T11:38:35.840Z,1.42
2022-09-29T11:40:48.569Z,1.40
2022-09-29T11:43:06.150Z,1.33
2022-09-29T11:45:15.212Z,1.70
2022-09-29T11:47:36.327Z,1.77
2022-09-29T11:50:14.710Z,1.50
2022-09-29T11:52:29.290Z,1.42
2022-09-29T11:54:50.871Z,1.63
2022-09-29T11:56:59.954Z,1.70
2022-09-29T11:59:23.314Z,1.70
2022-09-29T12:01:41.619Z,1.70
2022-09-29T12:03:50.877Z,1.35
2022-09-29T12:06:21.720Z,1.30
2022-09-29T12:08:36.465Z,1.20
2022-09-29T12:10:47.750Z,1.30
2022-09-29T12:12:57.888Z,1.70
2022-09-29T12:15:08.964Z,1.50
2022-09-29T12:17:17.346Z,1.45
2022-09-29T12:19:24.311Z,1.30
2022-09-29T12:21:34.912Z,1.35
2022-09-29T12:23:40.556Z,1.17
2022-09-29T12:25:53.083Z,1.33
2022-09-29T12:28:00.049Z,1.27
2022-09-29T12:30:07.433Z,1.50
2022-09-29T12:32:19.127Z,1.42
2022-09-29T12:34:28.471Z,1.63
2022-09-29T12:36:45.660Z,1.42
2022-09-29T12:38:49.674Z,1.30
2022-09-29T12:41:06.018Z,1.55
2022-09-29T12:43:16.328Z,1.30
2022-09-29T12:45:29.621Z,1.35
2022-09-29T12:47:48.986Z,1.40
2022-09-29T12:50:03.498Z,1.27
2022-09-29T12:52:16.244Z,1.30
2022-09-29T12:54:25.326Z,1.25
2022-09-29T12:56:32.237Z,1.33
2022-09-29T12:58:42.142Z,1.50
2022-09-29T13:00:48.657Z,1.50
2022-09-29T13:03:23.477Z,1.33
2022-09-29T13:05:43.239Z,1.10
2022-09-29T13:08:26.638Z,1.02
2022-09-29T13:10:42.448Z,1.42
2022-09-29T13:13:23.331Z,0.85
2022-09-29T13:15:35.738Z,1.17
2022-09-29T13:17:55.223Z,1.20
2022-09-29T13:20:21.514Z,1.23
2022-09-29T13:22:46.542Z,1.20
2022-09-29T13:24:56.889Z,1.92
2022-09-29T13:27:21.511Z,1.10
2022-09-29T13:29:26.958Z,1.33
2022-09-29T13:31:33.849Z,1.30
2022-09-29T13:33:36.966Z,1.00
2022-09-29T13:35:43.121Z,0.95
2022-09-29T13:37:50.329Z,1.00
2022-09-29T13:40:02.545Z,1.35
2022-09-29T13:42:38.960Z,1.13
2022-09-29T13:44:42.062Z,1.02
2022-09-29T13:46:45.076Z,1.02
2022-09-29T13:48:52.667Z,1.00
2022-09-29T13:50:58.722Z,1.00
2022-09-29T13:53:35.041Z,1.17
2022-09-29T13:55:52.652Z,1.00
2022-09-29T13:57:55.367Z,1.00
2022-09-29T14:00:26.526Z,1.10
2022-09-29T14:02:33.589Z,1.02
2022-09-29T14:04:46.232Z,1.20
2022-09-29T14:06:49.345Z,1.10
2022-09-29T14:08:54.603Z,1.00
2022-09-29T14:11:07.264Z,0.95
2022-09-29T14:13:16.188Z,1.08
2022-09-29T14:15:23.343Z,1.25
2022-09-29T14:17:30.907Z,0.90
2022-09-29T14:19:40.552Z,1.20
2022-09-29T14:21:50.768Z,0.98
2022-09-29T14:23:55.053Z,1.30
2022-09-29T14:25:57.727Z,0.93
2022-09-29T14:28:05.888Z,1.40
2022-09-29T14:30:18.419Z,1.20
2022-09-29T14:34:30.988Z,1.42
2022-09-29T14:36:35.223Z,0.93
2022-09-29T14:38:40.865Z,1.10
2022-09-29T14:40:56.501Z,2.15
2022-09-29T14:43:15.882Z,1.10
2022-09-29T14:45:37.295Z,1.20
2022-09-29T14:48:04.607Z,1.45
2022-09-29T14:50:44.567Z,1.65
2022-09-29T14:53:01.190Z,1.20
2022-09-29T14:55:15.162Z,1.00
2022-09-29T14:57:52.364Z,1.40
2022-09-29T15:00:05.523Z,1.17
2022-09-29T15:02:20.753Z,1.40
2022-09-29T15:04:23.550Z,1.40
2022-09-29T15:06:28.483Z,1.35
2022-09-29T15:08:34.317Z,1.88
2022-09-29T15:10:41.229Z,1.60
2022-09-29T15:12:50.607Z,1.40
2022-09-29T15:14:54.798Z,1.38
2022-09-29T15:17:25.109Z,2.00
2022-09-29T15:19:43.277Z,1.40
2022-09-29T15:21:56.595Z,1.50
2022-09-29T15:24:45.030Z,1.52
2022-09-29T15:26:47.825Z,1.65
2022-09-29T15:28:50.502Z,1.45
2022-09-29T15:30:54.700Z,1.65
2022-09-29T15:33:19.877Z,1.90
2022-09-29T15:35:25.833Z,1.90
2022-09-29T15:37:28.475Z,1.70
2022-09-29T15:39:53.479Z,1.67
2022-09-29T15:42:01.981Z,1.90
2022-09-29T15:44:17.864Z,1.58
2022-09-29T15:46:22.749Z,2.05
2022-09-29T15:48:27.340Z,1.80
2022-09-29T15:50:35.616Z,1.90
2022-09-29T15:52:38.870Z,1.90
2022-09-29T15:54:45.044Z,1.63
2022-09-29T15:57:05.995Z,1.70
2022-09-29T15:59:18.997Z,1.83
2022-09-29T16:01:22.729Z,1.77
2022-09-29T16:03:37.188Z,2.00
2022-09-29T16:05:45.413Z,1.77
2022-09-29T16:07:50.795Z,1.50
2022-09-29T16:09:53.663Z,1.80
2022-09-29T16:11:56.379Z,1.70
2022-09-29T16:14:02.969Z,1.55
2022-09-29T16:18:12.075Z,1.73
2022-09-29T16:20:24.982Z,1.65
2022-09-29T16:22:28.484Z,1.83
2022-09-29T16:24:34.774Z,1.77
2022-09-29T16:26:38.853Z,1.40
2022-09-29T16:28:59.744Z,1.85
2022-09-29T16:31:03.768Z,1.85
2022-09-29T16:33:15.072Z,1.45
2022-09-29T16:35:41.037Z,1.55
2022-09-29T16:37:43.611Z,1.45
2022-09-29T16:39:49.103Z,1.83
2022-09-29T16:41:53.379Z,1.60
2022-09-29T16:44:12.793Z,1.58
2022-09-29T16:46:22.153Z,1.60
2022-09-29T16:48:26.373Z,1.77
2022-09-29T16:50:29.094Z,1.90
2022-09-29T16:52:41.855Z,2.00
2022-09-29T16:54:47.432Z,1.73
2022-09-29T16:56:51.101Z,1.83
2022-09-29T16:59:05.312Z,1.60
2022-09-29T17:01:10.754Z,2.00
2022-09-29T17:03:14.931Z,2.00
2022-09-29T17:05:17.751Z,2.40
2022-09-29T17:07:23.218Z,2.28
2022-09-29T17:09:28.116Z,1.92
2022-09-29T17:11:30.789Z,2.10
2022-09-29T17:13:36.751Z,2.33
2022-09-29T17:15:40.376Z,2.15
2022-09-29T17:17:44.698Z,2.08
2022-09-29T17:19:47.311Z,1.98
2022-09-29T17:21:49.897Z,2.00
2022-09-29T17:23:54.177Z,2.10
2022-09-29T17:26:18.208Z,2.10
2022-09-29T17:28:23.802Z,2.20
2022-09-29T17:30:28.391Z,2.42
2022-09-29T17:32:30.994Z,1.90
2022-09-29T17:34:33.622Z,2.10
2022-09-29T17:36:37.868Z,2.00
2022-09-29T17:38:41.431Z,2.08
2022-09-29T17:40:53.562Z,2.20
2022-09-29T17:43:00.055Z,1.95
2022-09-29T17:45:04.245Z,2.03
2022-09-29T17:47:24.258Z,2.00
2022-09-29T17:49:29.997Z,2.45
2022-09-29T17:51:32.709Z,2.70
2022-09-29T17:53:35.364Z,2.50
2022-09-29T17:55:38.262Z,1.90
2022-09-29T17:57:42.380Z,2.00
2022-09-29T17:59:47.164Z,2.03
2022-09-29T18:01:49.976Z,2.53
2022-09-29T18:03:52.719Z,2.40
2022-09-29T18:05:58.528Z,2.72
2022-09-29T18:08:01.860Z,3.40
2022-09-29T18:10:11.419Z,2.83
2022-09-29T18:12:14.025Z,2.13
2022-09-29T18:14:16.627Z,2.10
2022-09-29T18:16:23.331Z,1.98
2022-09-29T18:20:30.769Z,2.00
2022-09-29T18:22:33.504Z,1.73
2022-09-29T18:24:36.331Z,2.35
2022-09-29T18:26:39.560Z,2.50
2022-09-29T18:28:43.760Z,2.38
2022-09-29T18:30:49.327Z,2.47
2022-09-29T18:32:55.777Z,2.50
2022-09-29T18:34:58.442Z,2.55
2022-09-29T18:37:01.075Z,2.33
2022-09-29T18:39:03.648Z,2.60
2022-09-29T18:41:07.877Z,2.42
2022-09-29T18:43:13.091Z,2.55
2022-09-29T18:45:22.871Z,2.20
2022-09-29T18:47:26.597Z,2.45
2022-09-29T18:49:30.596Z,2.20
2022-09-29T18:51:34.180Z,2.13
2022-09-29T18:53:36.787Z,2.33
2022-09-29T18:55:41.577Z,2.47
2022-09-29T18:57:44.362Z,2.25
2022-09-29T18:59:48.944Z,3.00
2022-09-29T19:01:51.613Z,2.65
2022-09-29T19:03:54.877Z,2.90
2022-09-29T19:05:58.861Z,2.90
2022-09-29T19:08:03.544Z,2.58
2022-09-29T19:10:07.577Z,2.25
2022-09-29T19:12:11.222Z,2.95
2022-09-29T19:14:13.821Z,3.00
2022-09-29T19:16:16.511Z,3.72
2022-09-29T19:18:23.693Z,3.08
2022-09-29T19:20:28.573Z,2.60
2022-09-29T19:22:38.226Z,3.63
2022-09-29T19:24:41.247Z,3.17
2022-09-29T19:26:43.840Z,2.95
2022-09-29T19:28:48.109Z,2.90
2022-09-29T19:30:51.167Z,2.95
2022-09-29T19:32:55.137Z,2.40
2022-09-29T19:34:58.297Z,2.75
2022-09-29T19:37:01.220Z,2.65
2022-09-29T19:39:05.389Z,2.50
2022-09-29T19:41:13.587Z,2.65
2022-09-29T19:43:16.254Z,2.83
2022-09-29T19:45:18.998Z,2.92
2022-09-29T19:47:21.913Z,2.65
2022-09-29T19:49:24.622Z,3.03
2022-09-29T19:51:47.500Z,2.78
2022-09-29T19:54:10.250Z,3.10
2022-09-29T19:56:14.962Z,3.45
2022-09-29T19:58:17.588Z,3.90
2022-09-29T20:00:21.759Z,2.72
2022-09-29T20:02:24.449Z,3.03
2022-09-29T20:04:29.991Z,5.32
2022-09-29T20:06:35.947Z,4.25
2022-09-29T20:08:39.071Z,3.83
2022-09-29T20:10:42.442Z,3.90
2022-09-29T20:12:46.551Z,3.97
2022-09-29T20:14:49.585Z,3.75
2022-09-29T20:16:55.997Z,3.25
2022-09-29T20:18:58.657Z,3.47
2022-09-29T20:21:04.656Z,3.90
2022-09-29T20:23:07.310Z,4.15
2022-09-29T20:25:10.975Z,3.78
2022-09-29T20:27:13.828Z,3.25
2022-09-29T20:29:19.925Z,3.70
2022-09-29T20:31:24.079Z,3.30
2022-09-29T20:33:27.199Z,3.83
2022-09-29T20:35:29.783Z,3.10
2022-09-29T20:37:32.553Z,3.45
2022-09-29T20:39:35.206Z,3.30
2022-09-29T20:41:37.843Z,3.50
2022-09-29T20:43:43.625Z,3.58
2022-09-29T20:45:47.628Z,3.20
2022-09-29T20:47:50.221Z,3.30
2022-09-29T20:49:56.332Z,5.28
2022-09-29T20:51:59.546Z,4.00
2022-09-29T20:54:02.707Z,4.10
2022-09-29T20:56:07.481Z,3.60
2022-09-29T20:58:11.440Z,4.05
2022-09-29T21:00:14.523Z,3.40
2022-09-29T21:02:18.813Z,4.03
2022-09-29T21:04:22.923Z,3.42
2022-09-29T21:06:27.661Z,3.78
2022-09-29T21:08:30.253Z,4.07
2022-09-29T21:10:32.833Z,3.97
2022-09-29T21:12:35.427Z,3.75
2022-09-29T21:14:38.032Z,4.20
2022-09-29T21:16:42.009Z,4.05
2022-09-29T21:18:46.436Z,4.53
2022-09-29T21:20:49.761Z,3.70
2022-09-29T21:22:52.348Z,4.03
2022-09-29T21:24:54.938Z,3.78
2022-09-29T21:26:58.894Z,3.72
2022-09-29T21:29:02.571Z,4.57
2022-09-29T21:31:07.052Z,3.75
2022-09-29T21:33:11.176Z,3.63
2022-09-29T21:35:16.713Z,3.92
2022-09-29T21:37:19.342Z,3.53
2022-09-29T21:39:22.209Z,3.92
2022-09-29T21:41:27.432Z,3.78
2022-09-29T21:43:30.561Z,4.22
2022-09-29T21:45:33.183Z,3.55
2022-09-29T21:47:53.367Z,4.18
2022-09-29T21:49:58.329Z,3.83
2022-09-29T21:52:02.763Z,4.15
2022-09-29T21:54:06.994Z,4.50
2022-09-29T21:56:11.513Z,4.05
2022-09-29T21:58:14.128Z,4.10
2022-09-29T22:00:17.457Z,4.15
2022-09-29T22:02:20.259Z,4.32
2022-09-29T22:04:24.242Z,4.13
2022-09-29T22:06:29.345Z,4.70
2022-09-29T22:08:33.314Z,6.47
2022-09-29T22:10:36.226Z,5.22
2022-09-29T22:12:38.840Z,5.82
2022-09-29T22:14:43.943Z,6.35
2022-09-29T22:16:48.531Z,7.35
2022-09-29T22:19:11.695Z,5.72
2022-09-29T22:21:18.755Z,6.43
2022-09-29T22:23:21.376Z,6.32
2022-09-29T22:25:28.416Z,5.88
2022-09-29T22:27:33.405Z,7.97
2022-09-29T22:29:35.995Z,7.95
2022-09-29T22:31:40.314Z,8.38
2022-09-29T22:33:45.948Z,7.07
2022-09-29T22:35:57.007Z,6.78
2022-09-29T22:37:59.728Z,6.82
2022-09-29T22:40:03.893Z,6.50
2022-09-29T22:42:07.848Z,5.70
2022-09-29T22:44:10.710Z,5.93
2022-09-29T22:46:13.349Z,4.95
2022-09-29T22:48:16.402Z,4.63
2022-09-29T22:50:19.035Z,4.82
2022-09-29T22:52:21.716Z,4.80
2022-09-29T22:54:24.339Z,4.53
2022-09-29T22:56:29.288Z,4.00
2022-09-29T22:58:33.274Z,5.72
2022-09-29T23:00:36.282Z,4.32
2022-09-29T23:02:38.896Z,4.93
2022-09-29T23:04:41.485Z,4.50
2022-09-29T23:06:44.087Z,4.38
2022-09-29T23:08:46.718Z,4.30
2022-09-29T23:10:49.294Z,4.47
2022-09-29T23:12:52.156Z,4.50
2022-09-29T23:14:56.494Z,4.72
2022-09-29T23:16:59.137Z,4.38
2022-09-29T23:19:01.776Z,5.00
2022-09-29T23:21:05.737Z,4.78
2022-09-29T23:23:08.404Z,4.07
2022-09-29T23:25:11.151Z,4.55
2022-09-29T23:27:13.785Z,4.60
2022-09-29T23:29:16.426Z,5.05
2022-09-29T23:31:20.694Z,4.80
2022-09-29T23:33:23.416Z,5.43
2022-09-29T23:35:26.071Z,5.18
2022-09-29T23:37:48.708Z,5.10
2022-09-29T23:39:50.832Z,5.10
2022-09-29T23:41:54.370Z,4.97
2022-09-29T23:43:58.420Z,5.13
2022-09-29T23:46:01.107Z,6.03
2022-09-29T23:48:05.242Z,5.53
2022-09-29T23:50:08.309Z,6.38
2022-09-29T23:52:10.916Z,5.47
2022-09-29T23:54:16.037Z,5.53
2022-09-29T23:56:18.862Z,5.40
2022-09-29T23:58:21.465Z,5.28
